Lekanda — EA-6725 — position and weather

sailwx.info

Track history (hours):
 
Tides and Currents Weather Stations Pressure Air Temp Water Temp Dewpoint Dewpoint Depression Visibility Wind Speed Wind Dir Waves Ship Positions

Lekanda

Last reported at 2018-Jun-16 03:35 UTC. Time now 2018-Jun-23 12:23 UTC.
Position N 43°50' W 005°49'.

Length 23 m.

Type: Fishing. MMSI: 224108670.

Date/timePositionNaut miles runAvg speedWind from/ knotsBaromVisibWave heightAir tempDewpointWater temp
2018-Jun-16 03:35N 43°50' W 005°49'87 8.3
2018-Jun-15 17:10N 43°35' W 003°51'3 8.1
2018-Jun-15 16:49N 43°35' W 003°47'3 8.2
2018-Jun-15 16:30N 43°35' W 003°44'4 8.1
2018-Jun-15 16:00N 43°34' W 003°38'5 8.4
2018-Jun-15 15:27N 43°33' W 003°32'4 7.9
2018-Jun-15 14:56N 43°33' W 003°26'3 7.7
2018-Jun-15 14:31N 43°32' W 003°22'4 7.6
2018-Jun-15 14:00N 43°32' W 003°17'4 8.1
2018-Jun-15 13:30N 43°31' W 003°11'4 8.1
2018-Jun-15 13:00N 43°31' W 003°06'4 7.9
2018-Jun-15 12:30N 43°30' W 003°00'4 7.8
2018-Jun-15 11:57N 43°29' W 002°54'3 7.0
2018-Jun-15 11:30N 43°28' W 002°51'3 5.3
2018-Jun-15 10:57N 43°27' W 002°46'3 6.8
2018-Jun-15 10:30N 43°26' W 002°43'1 1.5
2018-Jun-15 09:59N 43°25' W 002°43'0 0.0
2018-Jun-15 09:29N 43°25' W 002°43'0 0.0
2018-Jun-15 08:59N 43°25' W 002°43'0 0.0
2018-Jun-15 08:29N 43°25' W 002°43'0 0.0
2018-Jun-15 07:59N 43°25' W 002°43'0 0.0
2018-Jun-15 07:29N 43°25' W 002°43'0 0.0
2018-Jun-15 06:59N 43°25' W 002°43'0 0.0
2018-Jun-14 13:18N 43°25' W 002°43'0 0.0
2018-Jun-14 13:00N 43°25' W 002°43'0 0.0
2018-Jun-14 12:30N 43°25' W 002°43'0 0.0
2018-Jun-14 12:00N 43°25' W 002°43'0 0.0
2018-Jun-14 11:30N 43°25' W 002°43'0 0.0
2018-Jun-14 11:00N 43°25' W 002°43'0 0.0
2018-Jun-14 10:30N 43°25' W 002°43'0 0.0
2018-Jun-14 10:00N 43°25' W 002°43'0 0.1
2018-Jun-14 09:30N 43°25' W 002°43'0 0.0
2018-Jun-14 09:00N 43°25' W 002°43'0 0.0
2018-Jun-14 08:30N 43°25' W 002°43'0 0.3
2018-Jun-14 08:00N 43°25' W 002°43'0 0.0
2018-Jun-14 07:30N 43°25' W 002°43'0 0.0
2018-Jun-13 18:46N 43°25' W 002°43'0 0.0
2018-Jun-13 18:28N 43°25' W 002°43'0 0.0
2018-Jun-13 17:58N 43°25' W 002°43'0 0.0
2018-Jun-13 17:28N 43°25' W 002°43'0 0.0
2018-Jun-13 16:58N 43°25' W 002°43'0 0.0
2018-Jun-13 16:28N 43°25' W 002°43'0 0.0
2018-Jun-13 15:58N 43°25' W 002°43'0 0.0
2018-Jun-13 15:28N 43°25' W 002°43'0 0.0
2018-Jun-13 14:58N 43°25' W 002°43'0 0.0
2018-Jun-13 14:28N 43°25' W 002°43'0 0.0
2018-Jun-13 13:58N 43°25' W 002°43'0 0.0
2018-Jun-13 13:28N 43°25' W 002°43'0 0.0
2018-Jun-13 12:58N 43°25' W 002°43'0 0.0
2018-Jun-13 12:28N 43°25' W 002°43'0 0.0
2018-Jun-13 11:58N 43°25' W 002°43'0 0.0
2018-Jun-13 11:28N 43°25' W 002°43'0 0.0
2018-Jun-13 10:58N 43°25' W 002°43'0 0.0
2018-Jun-13 10:28N 43°25' W 002°43'0 0.0
2018-Jun-13 09:58N 43°25' W 002°43'0 0.0
2018-Jun-13 09:28N 43°25' W 002°43'0 0.0
2018-Jun-13 08:58N 43°25' W 002°43'0 0.0
2018-Jun-13 08:28N 43°25' W 002°43'0 0.0
2018-Jun-13 07:58N 43°25' W 002°43'0 0.0
2018-Jun-12 19:12N 43°25' W 002°43'0 0.0
2018-Jun-12 19:00N 43°25' W 002°43'0 0.0
2018-Jun-12 18:30N 43°25' W 002°43'0 0.0
2018-Jun-12 18:00N 43°25' W 002°43'0 0.0
2018-Jun-12 17:30N 43°25' W 002°43'0 0.0
2018-Jun-12 17:00N 43°25' W 002°43'0 0.0
2018-Jun-12 16:30N 43°25' W 002°43'0 0.0
2018-Jun-12 16:00N 43°25' W 002°43'0 0.0
2018-Jun-12 15:30N 43°25' W 002°43'0 0.0
2018-Jun-12 15:00N 43°25' W 002°43'0 0.0
2018-Jun-12 14:30N 43°25' W 002°43'0 0.0
2018-Jun-12 14:00N 43°25' W 002°43'0 0.0
2018-Jun-12 13:30N 43°25' W 002°43'0 0.0
2018-Jun-12 13:00N 43°25' W 002°43'0 0.0
2018-Jun-12 12:30N 43°25' W 002°43'0 0.0
2018-Jun-12 12:00N 43°25' W 002°43'0 0.0
2018-Jun-12 11:30N 43°25' W 002°43'0 0.0
2018-Jun-12 11:00N 43°25' W 002°43'0 0.0
2018-Jun-12 10:30N 43°25' W 002°43'0 0.0
2018-Jun-12 10:00N 43°25' W 002°43'0 0.0
2018-Jun-12 09:30N 43°25' W 002°43'0 0.0
2018-Jun-12 09:00N 43°25' W 002°43'0 0.0
2018-Jun-12 08:30N 43°25' W 002°43'0 0.0
2018-Jun-12 08:00N 43°25' W 002°43'0 0.0
2018-Jun-12 07:30N 43°25' W 002°43'0 0.0
2018-Jun-11 18:48N 43°25' W 002°43'0 0.0
2018-Jun-11 18:30N 43°25' W 002°43'0 0.0
2018-Jun-11 18:00N 43°25' W 002°43'0 0.0
2018-Jun-11 17:30N 43°25' W 002°43'0 0.0
2018-Jun-11 17:00N 43°25' W 002°43'0 0.0
2018-Jun-11 16:30N 43°25' W 002°43'0 0.0
2018-Jun-11 16:00N 43°25' W 002°43'0 0.0
2018-Jun-11 15:30N 43°25' W 002°43'0 0.0
2018-Jun-11 15:00N 43°25' W 002°43'0 0.0
2018-Jun-11 14:30N 43°25' W 002°43'0 0.0
2018-Jun-11 14:00N 43°25' W 002°43'0 0.0
2018-Jun-11 11:18N 43°25' W 002°43'0 0.0
2018-Jun-11 11:00N 43°25' W 002°43'0 0.0
2018-Jun-11 10:30N 43°25' W 002°43'0 0.0
2018-Jun-11 10:00N 43°25' W 002°43'0 0.0
2018-Jun-11 09:30N 43°25' W 002°43'0 0.0
2018-Jun-11 09:00N 43°25' W 002°43'0 0.0
2018-Jun-11 08:30N 43°25' W 002°43'0 0.0
2018-Jun-11 08:00N 43°25' W 002°43'0 0.0
2018-Jun-11 07:25N 43°25' W 002°43'0 0.0
2018-Jun-09 13:54N 43°25' W 002°43'0 0.0
2018-Jun-09 13:30N 43°25' W 002°43'0 0.0
2018-Jun-09 13:00N 43°25' W 002°43'0 0.0
2018-Jun-09 12:30N 43°25' W 002°43'0 0.0
2018-Jun-09 12:00N 43°25' W 002°43'0 0.0
2018-Jun-09 11:30N 43°25' W 002°43'0 0.0
2018-Jun-09 11:00N 43°25' W 002°43'0 0.0
2018-Jun-09 10:30N 43°25' W 002°43'0 0.0
2018-Jun-09 10:00N 43°25' W 002°43'0 0.0
2018-Jun-09 09:30N 43°25' W 002°43'0 0.0
2018-Jun-09 09:00N 43°25' W 002°43'0 0.0
2018-Jun-09 08:30N 43°25' W 002°43'0 0.0
2018-Jun-09 08:00N 43°25' W 002°43'0 0.0
2018-Jun-09 07:30N 43°25' W 002°43'0 0.0
2018-Jun-08 19:32N 43°25' W 002°43'0 0.0
2018-Jun-08 19:29N 43°25' W 002°43'0 0.0
2018-Jun-08 18:59N 43°25' W 002°43'0 0.0
2018-Jun-08 18:29N 43°25' W 002°43'0 0.0
2018-Jun-08 17:59N 43°25' W 002°43'0 0.0
2018-Jun-08 17:29N 43°25' W 002°43'0 0.0
2018-Jun-08 16:59N 43°25' W 002°43'0 0.0
2018-Jun-08 16:29N 43°25' W 002°43'0 0.0
2018-Jun-08 15:59N 43°25' W 002°43'0 0.0
2018-Jun-08 15:29N 43°25' W 002°43'0 0.0
2018-Jun-08 14:59N 43°25' W 002°43'0 0.0
2018-Jun-08 14:29N 43°25' W 002°43'0 0.0
2018-Jun-08 13:59N 43°25' W 002°43'0 0.0
2018-Jun-08 13:29N 43°25' W 002°43'0 0.0
2018-Jun-08 12:59N 43°25' W 002°43'0 0.0
2018-Jun-08 12:29N 43°25' W 002°43'0 0.0
2018-Jun-08 11:59N 43°25' W 002°43'0 0.0
2018-Jun-08 11:29N 43°25' W 002°43'0 0.0
2018-Jun-08 10:59N 43°25' W 002°43'0 0.0
2018-Jun-08 10:29N 43°25' W 002°43'0 0.0
2018-Jun-08 09:59N 43°25' W 002°43'0 0.0
2018-Jun-08 09:29N 43°25' W 002°43'0 0.0
2018-Jun-08 08:59N 43°25' W 002°43'0 0.0
2018-Jun-08 08:29N 43°25' W 002°43'0 0.0
2018-Jun-07 18:38N 43°25' W 002°43'0 0.0
2018-Jun-07 10:06N 43°25' W 002°43'0 0.0
2018-Jun-07 10:00N 43°25' W 002°43'0 0.0
2018-Jun-07 09:30N 43°25' W 002°43'0 0.0
2018-Jun-07 09:00N 43°25' W 002°43'0 0.0
2018-Jun-07 08:30N 43°25' W 002°43'0 0.0
2018-Jun-07 08:00N 43°25' W 002°43'0 0.0
2018-Jun-07 07:30N 43°25' W 002°43'0 0.0
2018-Jun-07 07:00N 43°25' W 002°43'0 0.0
2018-Jun-07 06:30N 43°25' W 002°43'0 0.0
2018-Jun-06 18:26N 43°25' W 002°43'0 0.0
2018-Jun-06 17:56N 43°25' W 002°43'0 0.0
2018-Jun-06 17:26N 43°25' W 002°43'0 0.0
2018-Jun-06 16:56N 43°25' W 002°43'0 0.0
2018-Jun-06 16:26N 43°25' W 002°43'0 0.0
2018-Jun-06 15:56N 43°25' W 002°43'0 0.0
2018-Jun-06 15:26N 43°25' W 002°43'0 0.0
2018-Jun-06 14:56N 43°25' W 002°43'0 0.0
2018-Jun-06 14:26N 43°25' W 002°43'0 0.0
2018-Jun-06 13:56N 43°25' W 002°43'0 0.0
2018-Jun-06 13:26N 43°25' W 002°43'0 0.0
2018-Jun-06 12:56N 43°25' W 002°43'0 0.0
2018-Jun-06 12:26N 43°25' W 002°43'0 0.0
2018-Jun-06 11:56N 43°25' W 002°43'0 0.0
2018-Jun-06 11:26N 43°25' W 002°43'0 0.0
2018-Jun-06 10:56N 43°25' W 002°43'0 0.0
2018-Jun-06 10:26N 43°25' W 002°43'0 0.0
2018-Jun-06 09:56N 43°25' W 002°43'0 0.0
2018-Jun-06 09:26N 43°25' W 002°43'0 0.0
2018-Jun-06 08:50N 43°25' W 002°43'0 0.0
2018-Jun-06 08:26N 43°25' W 002°43'0 0.0
2018-Jun-06 07:56N 43°25' W 002°43'0 0.0
2018-Jun-06 07:26N 43°25' W 002°43'  
Track history (hours):
 
Tides and Currents Weather Stations Pressure Air Temp Water Temp Dewpoint Dewpoint Depression Visibility Wind Speed Wind Dir Waves Ship Positions

Lekanda

Last reported at 2018-Jun-16 03:35 UTC. Time now 2018-Jun-23 12:23 UTC.
Position N 43°50' W 005°49'.

Length 23 m.

Type: Fishing. MMSI: 224108670.

Date/timePositionNaut miles runAvg speedWind from/ knotsBaromVisibWave heightAir tempDewpointWater temp
2018-Jun-16 03:35N 43°50' W 005°49'87 8.3
2018-Jun-15 17:10N 43°35' W 003°51'3 8.1
2018-Jun-15 16:49N 43°35' W 003°47'3 8.2
2018-Jun-15 16:30N 43°35' W 003°44'4 8.1
2018-Jun-15 16:00N 43°34' W 003°38'5 8.4
2018-Jun-15 15:27N 43°33' W 003°32'4 7.9
2018-Jun-15 14:56N 43°33' W 003°26'3 7.7
2018-Jun-15 14:31N 43°32' W 003°22'4 7.6
2018-Jun-15 14:00N 43°32' W 003°17'4 8.1
2018-Jun-15 13:30N 43°31' W 003°11'4 8.1
2018-Jun-15 13:00N 43°31' W 003°06'4 7.9
2018-Jun-15 12:30N 43°30' W 003°00'4 7.8
2018-Jun-15 11:57N 43°29' W 002°54'3 7.0
2018-Jun-15 11:30N 43°28' W 002°51'3 5.3
2018-Jun-15 10:57N 43°27' W 002°46'3 6.8
2018-Jun-15 10:30N 43°26' W 002°43'1 1.5
2018-Jun-15 09:59N 43°25' W 002°43'0 0.0
2018-Jun-15 09:29N 43°25' W 002°43'0 0.0
2018-Jun-15 08:59N 43°25' W 002°43'0 0.0
2018-Jun-15 08:29N 43°25' W 002°43'0 0.0
2018-Jun-15 07:59N 43°25' W 002°43'0 0.0
2018-Jun-15 07:29N 43°25' W 002°43'0 0.0
2018-Jun-15 06:59N 43°25' W 002°43'0 0.0
2018-Jun-14 13:18N 43°25' W 002°43'0 0.0
2018-Jun-14 13:00N 43°25' W 002°43'0 0.0
2018-Jun-14 12:30N 43°25' W 002°43'0 0.0
2018-Jun-14 12:00N 43°25' W 002°43'0 0.0
2018-Jun-14 11:30N 43°25' W 002°43'0 0.0
2018-Jun-14 11:00N 43°25' W 002°43'0 0.0
2018-Jun-14 10:30N 43°25' W 002°43'0 0.0
2018-Jun-14 10:00N 43°25' W 002°43'0 0.1
2018-Jun-14 09:30N 43°25' W 002°43'0 0.0
2018-Jun-14 09:00N 43°25' W 002°43'0 0.0
2018-Jun-14 08:30N 43°25' W 002°43'0 0.3
2018-Jun-14 08:00N 43°25' W 002°43'0 0.0
2018-Jun-14 07:30N 43°25' W 002°43'0 0.0
2018-Jun-13 18:46N 43°25' W 002°43'0 0.0
2018-Jun-13 18:28N 43°25' W 002°43'0 0.0
2018-Jun-13 17:58N 43°25' W 002°43'0 0.0
2018-Jun-13 17:28N 43°25' W 002°43'0 0.0
2018-Jun-13 16:58N 43°25' W 002°43'0 0.0
2018-Jun-13 16:28N 43°25' W 002°43'0 0.0
2018-Jun-13 15:58N 43°25' W 002°43'0 0.0
2018-Jun-13 15:28N 43°25' W 002°43'0 0.0
2018-Jun-13 14:58N 43°25' W 002°43'0 0.0
2018-Jun-13 14:28N 43°25' W 002°43'0 0.0
2018-Jun-13 13:58N 43°25' W 002°43'0 0.0
2018-Jun-13 13:28N 43°25' W 002°43'0 0.0
2018-Jun-13 12:58N 43°25' W 002°43'0 0.0
2018-Jun-13 12:28N 43°25' W 002°43'0 0.0
2018-Jun-13 11:58N 43°25' W 002°43'0 0.0
2018-Jun-13 11:28N 43°25' W 002°43'0 0.0
2018-Jun-13 10:58N 43°25' W 002°43'0 0.0
2018-Jun-13 10:28N 43°25' W 002°43'0 0.0
2018-Jun-13 09:58N 43°25' W 002°43'0 0.0
2018-Jun-13 09:28N 43°25' W 002°43'0 0.0
2018-Jun-13 08:58N 43°25' W 002°43'0 0.0
2018-Jun-13 08:28N 43°25' W 002°43'0 0.0
2018-Jun-13 07:58N 43°25' W 002°43'0 0.0
2018-Jun-12 19:12N 43°25' W 002°43'0 0.0
2018-Jun-12 19:00N 43°25' W 002°43'0 0.0
2018-Jun-12 18:30N 43°25' W 002°43'0 0.0
2018-Jun-12 18:00N 43°25' W 002°43'0 0.0
2018-Jun-12 17:30N 43°25' W 002°43'0 0.0
2018-Jun-12 17:00N 43°25' W 002°43'0 0.0
2018-Jun-12 16:30N 43°25' W 002°43'0 0.0
2018-Jun-12 16:00N 43°25' W 002°43'0 0.0
2018-Jun-12 15:30N 43°25' W 002°43'0 0.0
2018-Jun-12 15:00N 43°25' W 002°43'0 0.0
2018-Jun-12 14:30N 43°25' W 002°43'0 0.0
2018-Jun-12 14:00N 43°25' W 002°43'0 0.0
2018-Jun-12 13:30N 43°25' W 002°43'0 0.0
2018-Jun-12 13:00N 43°25' W 002°43'0 0.0
2018-Jun-12 12:30N 43°25' W 002°43'0 0.0
2018-Jun-12 12:00N 43°25' W 002°43'0 0.0
2018-Jun-12 11:30N 43°25' W 002°43'0 0.0
2018-Jun-12 11:00N 43°25' W 002°43'0 0.0
2018-Jun-12 10:30N 43°25' W 002°43'0 0.0
2018-Jun-12 10:00N 43°25' W 002°43'0 0.0
2018-Jun-12 09:30N 43°25' W 002°43'0 0.0
2018-Jun-12 09:00N 43°25' W 002°43'0 0.0
2018-Jun-12 08:30N 43°25' W 002°43'0 0.0
2018-Jun-12 08:00N 43°25' W 002°43'0 0.0
2018-Jun-12 07:30N 43°25' W 002°43'0 0.0
2018-Jun-11 18:48N 43°25' W 002°43'0 0.0
2018-Jun-11 18:30N 43°25' W 002°43'0 0.0
2018-Jun-11 18:00N 43°25' W 002°43'0 0.0
2018-Jun-11 17:30N 43°25' W 002°43'0 0.0
2018-Jun-11 17:00N 43°25' W 002°43'0 0.0
2018-Jun-11 16:30N 43°25' W 002°43'0 0.0
2018-Jun-11 16:00N 43°25' W 002°43'0 0.0
2018-Jun-11 15:30N 43°25' W 002°43'0 0.0
2018-Jun-11 15:00N 43°25' W 002°43'0 0.0
2018-Jun-11 14:30N 43°25' W 002°43'0 0.0
2018-Jun-11 14:00N 43°25' W 002°43'0 0.0
2018-Jun-11 11:18N 43°25' W 002°43'0 0.0
2018-Jun-11 11:00N 43°25' W 002°43'0 0.0
2018-Jun-11 10:30N 43°25' W 002°43'0 0.0
2018-Jun-11 10:00N 43°25' W 002°43'0 0.0
2018-Jun-11 09:30N 43°25' W 002°43'0 0.0
2018-Jun-11 09:00N 43°25' W 002°43'0 0.0
2018-Jun-11 08:30N 43°25' W 002°43'0 0.0
2018-Jun-11 08:00N 43°25' W 002°43'0 0.0
2018-Jun-11 07:25N 43°25' W 002°43'0 0.0
2018-Jun-09 13:54N 43°25' W 002°43'0 0.0
2018-Jun-09 13:30N 43°25' W 002°43'0 0.0
2018-Jun-09 13:00N 43°25' W 002°43'0 0.0
2018-Jun-09 12:30N 43°25' W 002°43'0 0.0
2018-Jun-09 12:00N 43°25' W 002°43'0 0.0
2018-Jun-09 11:30N 43°25' W 002°43'0 0.0
2018-Jun-09 11:00N 43°25' W 002°43'0 0.0
2018-Jun-09 10:30N 43°25' W 002°43'0 0.0
2018-Jun-09 10:00N 43°25' W 002°43'0 0.0
2018-Jun-09 09:30N 43°25' W 002°43'0 0.0
2018-Jun-09 09:00N 43°25' W 002°43'0 0.0
2018-Jun-09 08:30N 43°25' W 002°43'0 0.0
2018-Jun-09 08:00N 43°25' W 002°43'0 0.0
2018-Jun-09 07:30N 43°25' W 002°43'0 0.0
2018-Jun-08 19:32N 43°25' W 002°43'0 0.0
2018-Jun-08 19:29N 43°25' W 002°43'0 0.0
2018-Jun-08 18:59N 43°25' W 002°43'0 0.0
2018-Jun-08 18:29N 43°25' W 002°43'0 0.0
2018-Jun-08 17:59N 43°25' W 002°43'0 0.0
2018-Jun-08 17:29N 43°25' W 002°43'0 0.0
2018-Jun-08 16:59N 43°25' W 002°43'0 0.0
2018-Jun-08 16:29N 43°25' W 002°43'0 0.0
2018-Jun-08 15:59N 43°25' W 002°43'0 0.0
2018-Jun-08 15:29N 43°25' W 002°43'0 0.0
2018-Jun-08 14:59N 43°25' W 002°43'0 0.0
2018-Jun-08 14:29N 43°25' W 002°43'0 0.0
2018-Jun-08 13:59N 43°25' W 002°43'0 0.0
2018-Jun-08 13:29N 43°25' W 002°43'0 0.0
2018-Jun-08 12:59N 43°25' W 002°43'0 0.0
2018-Jun-08 12:29N 43°25' W 002°43'0 0.0
2018-Jun-08 11:59N 43°25' W 002°43'0 0.0
2018-Jun-08 11:29N 43°25' W 002°43'0 0.0
2018-Jun-08 10:59N 43°25' W 002°43'0 0.0
2018-Jun-08 10:29N 43°25' W 002°43'0 0.0
2018-Jun-08 09:59N 43°25' W 002°43'0 0.0
2018-Jun-08 09:29N 43°25' W 002°43'0 0.0
2018-Jun-08 08:59N 43°25' W 002°43'0 0.0
2018-Jun-08 08:29N 43°25' W 002°43'0 0.0
2018-Jun-07 18:38N 43°25' W 002°43'0 0.0
2018-Jun-07 10:06N 43°25' W 002°43'0 0.0
2018-Jun-07 10:00N 43°25' W 002°43'0 0.0
2018-Jun-07 09:30N 43°25' W 002°43'0 0.0
2018-Jun-07 09:00N 43°25' W 002°43'0 0.0
2018-Jun-07 08:30N 43°25' W 002°43'0 0.0
2018-Jun-07 08:00N 43°25' W 002°43'0 0.0
2018-Jun-07 07:30N 43°25' W 002°43'0 0.0
2018-Jun-07 07:00N 43°25' W 002°43'0 0.0
2018-Jun-07 06:30N 43°25' W 002°43'0 0.0
2018-Jun-06 18:26N 43°25' W 002°43'0 0.0
2018-Jun-06 17:56N 43°25' W 002°43'0 0.0
2018-Jun-06 17:26N 43°25' W 002°43'0 0.0
2018-Jun-06 16:56N 43°25' W 002°43'0 0.0
2018-Jun-06 16:26N 43°25' W 002°43'0 0.0
2018-Jun-06 15:56N 43°25' W 002°43'0 0.0
2018-Jun-06 15:26N 43°25' W 002°43'0 0.0
2018-Jun-06 14:56N 43°25' W 002°43'0 0.0
2018-Jun-06 14:26N 43°25' W 002°43'0 0.0
2018-Jun-06 13:56N 43°25' W 002°43'0 0.0
2018-Jun-06 13:26N 43°25' W 002°43'0 0.0
2018-Jun-06 12:56N 43°25' W 002°43'0 0.0
2018-Jun-06 12:26N 43°25' W 002°43'0 0.0
2018-Jun-06 11:56N 43°25' W 002°43'0 0.0
2018-Jun-06 11:26N 43°25' W 002°43'0 0.0
2018-Jun-06 10:56N 43°25' W 002°43'0 0.0
2018-Jun-06 10:26N 43°25' W 002°43'0 0.0
2018-Jun-06 09:56N 43°25' W 002°43'0 0.0
2018-Jun-06 09:26N 43°25' W 002°43'0 0.0
2018-Jun-06 08:50N 43°25' W 002°43'0 0.0
2018-Jun-06 08:26N 43°25' W 002°43'0 0.0
2018-Jun-06 07:56N 43°25' W 002°43'0 0.0
2018-Jun-06 07:26N 43°25' W 002°43'  

Dump ship's entire track history